Time;durP1;ratioP1;P1;durP2;ratioP2;P2;SDS_P1;SDS_P2;PMS_P1;PMS_P2;Temp;Humidity;BMP_temperature;BMP_pressure;BME280_temperature;BME280_humidity;BME280_pressure;Samples;Min_cycle;Max_cycle;Signal;HPM_P1;HPM_P2
2021/08/03 00:01:22;;;;;;;5.30;3.47;;;;;;;;;;5050492;28;20045;-88
2021/08/03 00:03:55;;;;;;;6.97;2.67;;;;;;;;;;5049861;28;20079;-86
2021/08/03 00:06:21;;;;;;;4.88;3.42;;;;;;;;;;5051975;28;20053;-87
2021/08/03 00:08:49;;;;;;;4.03;2.85;;;;;;;;;;5039337;28;20049;-86
2021/08/03 00:11:17;;;;;;;6.20;3.05;;;;;;;;;;5030188;28;20069;-87
2021/08/03 00:13:45;;;;;;;4.82;2.67;;;;;;;;;;5029075;28;20051;-86
2021/08/03 00:16:12;;;;;;;9.07;3.67;;;;;;;;;;5029649;28;20060;-86
2021/08/03 00:18:38;;;;;;;6.32;2.83;;;;;;;;;;5029574;28;20136;-86
2021/08/03 00:21:05;;;;;;;4.72;2.30;;;;;;;;;;5029337;28;20060;-86
2021/08/03 00:23:32;;;;;;;5.05;2.22;;;;;;;;;;5029409;28;20051;-85
2021/08/03 00:25:58;;;;;;;6.32;4.28;;;;;;;;;;5029524;28;20053;-82
2021/08/03 00:28:25;;;;;;;7.03;2.60;;;;;;;;;;5029044;28;20045;-86
2021/08/03 00:30:53;;;;;;;4.95;2.40;;;;;;;;;;5029303;28;20045;-84
2021/08/03 00:33:20;;;;;;;4.63;2.50;;;;;;;;;;5033328;28;20045;-86
2021/08/03 00:35:48;;;;;;;4.35;2.63;;;;;;;;;;5048710;28;20045;-86
2021/08/03 00:38:15;;;;;;;2.97;2.03;;;;;;;;;;5048852;28;20460;-86
2021/08/03 00:40:45;;;;;;;4.53;2.88;;;;;;;;;;5049139;28;20049;-87
2021/08/03 00:43:11;;;;;;;5.07;2.72;;;;;;;;;;5048424;28;20494;-87
2021/08/03 00:45:38;;;;;;;7.00;2.92;;;;;;;;;;5048646;28;20057;-87
2021/08/03 00:48:06;;;;;;;5.90;2.67;;;;;;;;;;5048946;28;20076;-87
2021/08/03 00:50:32;;;;;;;6.25;3.80;;;;;;;;;;5048977;28;20410;-87
2021/08/03 00:52:59;;;;;;;3.75;2.17;;;;;;;;;;5048752;28;20518;-87
2021/08/03 00:55:25;;;;;;;4.75;2.88;;;;;;;;;;5049202;28;20055;-87
2021/08/03 00:57:52;;;;;;;5.15;2.38;;;;;;;;;;5049580;28;20095;-87
2021/08/03 01:00:19;;;;;;;6.72;2.75;;;;;;;;;;5049698;28;20057;-86
2021/08/03 01:02:45;;;;;;;3.25;2.25;;;;;;;;;;5048541;28;20580;-87
2021/08/03 01:05:13;;;;;;;4.38;1.98;;;;;;;;;;5048928;28;20098;-87
2021/08/03 01:07:41;;;;;;;6.57;2.78;;;;;;;;;;5041079;28;20128;-86
2021/08/03 01:10:14;;;;;;;7.30;2.95;;;;;;;;;;5028915;28;20060;-85
2021/08/03 01:12:47;;;;;;;5.65;2.03;;;;;;;;;;5029316;28;20049;-86
2021/08/03 01:15:16;;;;;;;7.22;2.58;;;;;;;;;;5029361;28;20050;-86
2021/08/03 01:17:44;;;;;;;6.38;3.20;;;;;;;;;;5028789;28;20057;-86
2021/08/03 01:20:18;;;;;;;5.13;2.50;;;;;;;;;;5028799;28;20426;-84
2021/08/03 01:23:02;;;;;;;8.45;2.75;;;;;;;;;;5028887;28;20049;-84
2021/08/03 01:25:35;;;;;;;5.00;2.08;;;;;;;;;;5025241;28;20041;-84
2021/08/03 01:28:11;;;;;;;6.47;2.53;;;;;;;;;;5028889;28;20057;-84
2021/08/03 01:30:38;;;;;;;2.45;1.67;;;;;;;;;;5028727;28;20448;-84
2021/08/03 01:33:06;;;;;;;3.97;2.13;;;;;;;;;;5030463;28;20050;-84
2021/08/03 01:35:33;;;;;;;3.80;2.38;;;;;;;;;;5048389;28;20045;-84
2021/08/03 01:38:00;;;;;;;5.60;2.10;;;;;;;;;;5048627;28;20053;-84
2021/08/03 01:40:27;;;;;;;3.58;1.52;;;;;;;;;;5048882;28;20048;-84
2021/08/03 01:42:54;;;;;;;3.45;1.67;;;;;;;;;;5048781;28;20445;-85
2021/08/03 01:45:23;;;;;;;2.90;2.03;;;;;;;;;;5048799;28;20508;-85
2021/08/03 01:47:50;;;;;;;4.13;1.63;;;;;;;;;;5048335;28;20049;-86
2021/08/03 01:50:18;;;;;;;6.07;3.38;;;;;;;;;;5048280;28;20056;-86
2021/08/03 01:52:45;;;;;;;8.10;1.80;;;;;;;;;;5042292;28;20108;-86
2021/08/03 01:55:12;;;;;;;4.05;1.98;;;;;;;;;;5030953;28;20045;-86
2021/08/03 01:57:41;;;;;;;3.80;2.47;;;;;;;;;;5032197;28;20115;-85
2021/08/03 02:00:08;;;;;;;3.00;1.98;;;;;;;;;;5031969;28;20552;-85
2021/08/03 02:02:37;;;;;;;4.65;1.63;;;;;;;;;;5032233;28;20049;-86
2021/08/03 02:05:03;;;;;;;5.45;2.85;;;;;;;;;;5032019;28;20119;-86
2021/08/03 02:07:31;;;;;;;3.38;2.53;;;;;;;;;;5032048;28;20116;-85
2021/08/03 02:09:58;;;;;;;4.90;2.25;;;;;;;;;;5032133;28;20049;-86
2021/08/03 02:12:25;;;;;;;2.85;1.65;;;;;;;;;;5031824;28;20465;-84
2021/08/03 02:14:51;;;;;;;4.13;2.08;;;;;;;;;;5031947;28;20049;-85
2021/08/03 02:17:18;;;;;;;2.80;1.45;;;;;;;;;;5031922;28;20056;-84
2021/08/03 02:19:46;;;;;;;3.33;1.65;;;;;;;;;;5031708;28;20054;-83
2021/08/03 02:22:13;;;;;;;4.57;1.88;;;;;;;;;;5031676;28;20045;-83
2021/08/03 02:24:40;;;;;;;4.50;2.50;;;;;;;;;;5032154;28;20045;-84
2021/08/03 02:27:07;;;;;;;1.88;0.90;;;;;;;;;;5031400;28;20077;-84
2021/08/03 02:29:34;;;;;;;4.63;2.13;;;;;;;;;;5031788;28;20115;-84
2021/08/03 02:32:03;;;;;;;2.17;1.63;;;;;;;;;;5031659;28;20045;-84
2021/08/03 02:34:30;;;;;;;3.47;1.58;;;;;;;;;;5045008;28;20509;-83
2021/08/03 02:36:59;;;;;;;6.05;2.22;;;;;;;;;;5051295;28;20052;-84
2021/08/03 02:39:26;;;;;;;4.03;2.92;;;;;;;;;;5051155;28;20107;-84
2021/08/03 02:41:53;;;;;;;5.50;2.05;;;;;;;;;;5051472;28;20391;-83
2021/08/03 02:44:20;;;;;;;4.05;2.03;;;;;;;;;;5051445;28;20107;-84
2021/08/03 02:46:50;;;;;;;6.60;2.40;;;;;;;;;;5051624;28;20091;-83
2021/08/03 02:49:27;;;;;;;2.75;1.77;;;;;;;;;;5051285;28;20395;-84
2021/08/03 02:51:53;;;;;;;5.72;2.72;;;;;;;;;;5050888;28;20053;-83
2021/08/03 02:54:25;;;;;;;4.18;2.30;;;;;;;;;;5051258;28;20049;-83
2021/08/03 02:56:53;;;;;;;5.13;2.03;;;;;;;;;;5045789;28;20046;-82
2021/08/03 02:59:20;;;;;;;2.75;1.50;;;;;;;;;;5031241;28;20403;-82
2021/08/03 03:01:47;;;;;;;2.70;1.42;;;;;;;;;;5031249;28;20045;-82
2021/08/03 03:04:17;;;;;;;3.65;1.88;;;;;;;;;;5030906;28;20061;-82
2021/08/03 03:06:47;;;;;;;3.55;2.15;;;;;;;;;;5030710;28;20041;-82
2021/08/03 03:09:15;;;;;;;7.35;3.55;;;;;;;;;;5011287;28;20049;-82
2021/08/03 03:11:43;;;;;;;3.72;2.00;;;;;;;;;;5010978;28;20391;-82
2021/08/03 03:14:10;;;;;;;4.80;2.20;;;;;;;;;;5011132;28;20046;-82
2021/08/03 03:16:40;;;;;;;7.28;2.65;;;;;;;;;;5010753;28;20100;-82
2021/08/03 03:19:06;;;;;;;5.45;2.80;;;;;;;;;;5010890;28;20065;-82
2021/08/03 03:21:34;;;;;;;2.60;1.65;;;;;;;;;;5011098;28;20101;-82
2021/08/03 03:24:01;;;;;;;1.92;1.67;;;;;;;;;;5011084;28;20042;-83
2021/08/03 03:26:31;;;;;;;7.28;2.15;;;;;;;;;;5011251;28;20058;-83
2021/08/03 03:29:00;;;;;;;2.83;1.70;;;;;;;;;;5010834;28;20446;-84
2021/08/03 03:31:27;;;;;;;2.55;1.40;;;;;;;;;;5010596;28;20053;-85
2021/08/03 03:33:54;;;;;;;2.60;1.33;;;;;;;;;;5028229;28;20091;-86
2021/08/03 03:36:23;;;;;;;16.05;2.90;;;;;;;;;;5049999;28;20551;-86
2021/08/03 03:38:49;;;;;;;4.20;2.70;;;;;;;;;;5050300;28;20049;-86
2021/08/03 03:41:16;;;;;;;5.30;3.03;;;;;;;;;;5049991;28;20049;-85
2021/08/03 03:43:42;;;;;;;6.13;2.88;;;;;;;;;;5049937;28;20490;-85
2021/08/03 03:46:13;;;;;;;12.45;3.60;;;;;;;;;;5049986;28;20048;-85
2021/08/03 03:48:44;;;;;;;4.07;1.58;;;;;;;;;;5050212;28;20044;-85
2021/08/03 03:51:15;;;;;;;4.40;2.55;;;;;;;;;;5049809;28;20094;-85
2021/08/03 03:53:43;;;;;;;6.57;3.25;;;;;;;;;;5050037;28;20365;-86
2021/08/03 03:56:11;;;;;;;3.65;2.65;;;;;;;;;;5050009;28;20120;-86
2021/08/03 03:58:40;;;;;;;3.38;2.10;;;;;;;;;;5030648;28;20057;-85
2021/08/03 04:01:07;;;;;;;3.65;2.25;;;;;;;;;;5029830;28;20046;-85
2021/08/03 04:03:36;;;;;;;4.00;1.65;;;;;;;;;;5029618;28;20055;-85
2021/08/03 04:06:03;;;;;;;5.18;2.85;;;;;;;;;;5028997;28;20046;-84
2021/08/03 04:08:29;;;;;;;2.63;1.50;;;;;;;;;;5028622;28;20414;-86
2021/08/03 04:11:00;;;;;;;3.60;2.47;;;;;;;;;;5029450;28;20041;-86
2021/08/03 04:13:27;;;;;;;4.57;3.00;;;;;;;;;;5029508;28;20049;-86
2021/08/03 04:15:54;;;;;;;4.55;2.10;;;;;;;;;;5029351;28;20049;-86
2021/08/03 04:18:20;;;;;;;4.60;1.65;;;;;;;;;;5029040;28;20045;-86
2021/08/03 04:20:48;;;;;;;2.10;1.45;;;;;;;;;;5029893;28;20046;-85
2021/08/03 04:23:15;;;;;;;3.83;2.70;;;;;;;;;;5029319;28;20045;-83
2021/08/03 04:25:41;;;;;;;3.13;1.65;;;;;;;;;;5029623;28;20524;-85
2021/08/03 04:28:08;;;;;;;3.35;1.88;;;;;;;;;;5029320;28;20533;-85
2021/08/03 04:30:35;;;;;;;3.28;1.70;;;;;;;;;;5029254;28;20083;-85
2021/08/03 04:33:02;;;;;;;1.90;1.45;;;;;;;;;;5029125;28;20057;-85
2021/08/03 04:35:28;;;;;;;3.55;1.92;;;;;;;;;;5029408;28;20045;-84
2021/08/03 04:37:56;;;;;;;5.38;3.03;;;;;;;;;;5029074;28;20517;-85
2021/08/03 04:40:23;;;;;;;2.75;1.52;;;;;;;;;;5028844;28;20053;-84
2021/08/03 04:42:49;;;;;;;3.30;2.75;;;;;;;;;;5029090;28;20055;-85
2021/08/03 04:45:16;;;;;;;3.33;2.28;;;;;;;;;;5029471;28;20049;-85
2021/08/03 04:47:45;;;;;;;4.47;2.00;;;;;;;;;;5029170;28;20056;-85
2021/08/03 04:50:12;;;;;;;2.35;1.20;;;;;;;;;;5029226;28;20049;-85
2021/08/03 04:52:39;;;;;;;3.03;2.17;;;;;;;;;;5028996;28;20171;-84
2021/08/03 04:55:08;;;;;;;3.65;1.50;;;;;;;;;;5028800;28;20050;-84
2021/08/03 04:57:34;;;;;;;7.93;2.15;;;;;;;;;;5028929;28;20057;-84
2021/08/03 05:00:01;;;;;;;5.75;1.55;;;;;;;;;;5028882;28;20057;-85
2021/08/03 05:02:28;;;;;;;4.00;1.83;;;;;;;;;;5028883;28;20052;-86
2021/08/03 05:04:54;;;;;;;3.92;2.55;;;;;;;;;;5028903;28;20072;-85
2021/08/03 05:07:21;;;;;;;4.07;1.95;;;;;;;;;;5028804;28;20056;-85
2021/08/03 05:09:47;;;;;;;4.47;2.30;;;;;;;;;;5028835;28;20061;-85
2021/08/03 05:12:15;;;;;;;5.15;2.95;;;;;;;;;;5029147;28;20046;-85
2021/08/03 05:14:42;;;;;;;3.55;1.63;;;;;;;;;;5028980;28;20076;-85
2021/08/03 05:17:08;;;;;;;3.97;1.70;;;;;;;;;;5029038;28;20049;-85
2021/08/03 05:19:35;;;;;;;3.67;2.95;;;;;;;;;;5028699;28;20049;-86
2021/08/03 05:22:01;;;;;;;3.47;1.85;;;;;;;;;;5028766;28;20064;-85
2021/08/03 05:24:28;;;;;;;4.00;2.17;;;;;;;;;;5028981;28;20061;-86
2021/08/03 05:26:55;;;;;;;8.20;2.63;;;;;;;;;;5029045;28;20045;-85
2021/08/03 05:29:23;;;;;;;5.65;2.53;;;;;;;;;;5031242;28;20049;-85
2021/08/03 05:31:49;;;;;;;7.97;3.28;;;;;;;;;;5032807;28;20423;-84
2021/08/03 05:34:16;;;;;;;3.25;2.58;;;;;;;;;;5032675;28;20406;-84
2021/08/03 05:36:42;;;;;;;3.72;2.17;;;;;;;;;;5033539;28;20135;-84
2021/08/03 05:39:11;;;;;;;3.83;2.30;;;;;;;;;;5032916;28;20486;-82
2021/08/03 05:41:37;;;;;;;10.38;4.18;;;;;;;;;;5033185;28;20053;-81
2021/08/03 05:44:04;;;;;;;8.20;4.43;;;;;;;;;;5032278;28;20057;-82
2021/08/03 05:46:33;;;;;;;6.40;4.13;;;;;;;;;;5032736;28;20053;-82
2021/08/03 05:48:59;;;;;;;5.30;3.38;;;;;;;;;;5032699;28;20104;-82
2021/08/03 05:51:26;;;;;;;7.78;4.43;;;;;;;;;;5032050;28;20552;-82
2021/08/03 05:53:52;;;;;;;5.47;3.55;;;;;;;;;;5032196;28;20057;-82
2021/08/03 05:56:19;;;;;;;5.63;4.15;;;;;;;;;;5032387;28;20056;-87
2021/08/03 05:58:45;;;;;;;7.72;3.67;;;;;;;;;;5032205;28;20041;-85
2021/08/03 06:01:12;;;;;;;6.93;4.55;;;;;;;;;;5032059;28;20049;-85
2021/08/03 06:03:40;;;;;;;9.85;6.32;;;;;;;;;;5032181;28;20054;-86
2021/08/03 06:06:08;;;;;;;24.75;12.32;;;;;;;;;;5032048;28;20046;-86
2021/08/03 06:08:35;;;;;;;20.35;12.95;;;;;;;;;;5031936;28;20129;-86
2021/08/03 06:11:03;;;;;;;19.65;12.23;;;;;;;;;;5031722;28;20264;-86
2021/08/03 06:13:30;;;;;;;20.55;12.02;;;;;;;;;;5031670;28;20056;-85
2021/08/03 06:15:58;;;;;;;20.02;11.13;;;;;;;;;;5031665;28;20046;-84
2021/08/03 06:18:29;;;;;;;17.45;10.13;;;;;;;;;;5031581;28;20384;-84
2021/08/03 06:20:57;;;;;;;20.77;14.13;;;;;;;;;;5031913;28;20045;-84
2021/08/03 06:23:24;;;;;;;27.17;14.52;;;;;;;;;;5031777;28;20469;-85
2021/08/03 06:25:52;;;;;;;18.23;10.27;;;;;;;;;;5031843;28;20469;-84
2021/08/03 06:28:19;;;;;;;14.20;7.85;;;;;;;;;;5031781;28;20057;-86
2021/08/03 06:30:48;;;;;;;7.03;4.93;;;;;;;;;;5031464;28;20099;-85
2021/08/03 06:33:16;;;;;;;10.68;6.55;;;;;;;;;;5031679;28;20091;-84
2021/08/03 06:35:42;;;;;;;9.73;4.80;;;;;;;;;;5031140;28;20069;-85
2021/08/03 06:38:10;;;;;;;10.15;5.85;;;;;;;;;;5031527;28;20099;-86
2021/08/03 06:40:40;;;;;;;5.80;3.58;;;;;;;;;;5030876;28;20442;-85
2021/08/03 06:43:10;;;;;;;8.95;4.40;;;;;;;;;;5031383;28;20095;-86
2021/08/03 06:45:38;;;;;;;15.57;3.78;;;;;;;;;;5038477;28;20045;-84
2021/08/03 06:48:06;;;;;;;7.07;4.43;;;;;;;;;;5049050;28;20510;-86
2021/08/03 06:50:34;;;;;;;9.73;6.20;;;;;;;;;;5050531;28;20579;-85
2021/08/03 06:53:01;;;;;;;10.45;6.70;;;;;;;;;;5051155;28;20045;-86
2021/08/03 06:55:32;;;;;;;15.27;8.38;;;;;;;;;;5050763;28;20052;-86
2021/08/03 06:58:01;;;;;;;9.82;6.13;;;;;;;;;;5051070;28;20138;-87
2021/08/03 07:00:30;;;;;;;15.82;9.93;;;;;;;;;;5050562;28;20041;-85
2021/08/03 07:02:56;;;;;;;29.98;18.58;;;;;;;;;;5050946;28;20049;-86
2021/08/03 07:05:25;;;;;;;43.35;23.75;;;;;;;;;;5050613;28;20075;-86
2021/08/03 07:07:56;;;;;;;32.58;19.25;;;;;;;;;;5050763;28;20136;-86
2021/08/03 07:10:22;;;;;;;13.10;9.07;;;;;;;;;;5050164;28;20463;-86
2021/08/03 07:12:50;;;;;;;13.90;7.82;;;;;;;;;;5050551;28;20146;-86
2021/08/03 07:15:17;;;;;;;10.60;7.55;;;;;;;;;;5050319;28;20498;-86
2021/08/03 07:17:45;;;;;;;16.02;8.70;;;;;;;;;;5050165;28;20052;-87
2021/08/03 07:20:12;;;;;;;11.55;9.55;;;;;;;;;;5050414;28;20045;-86
2021/08/03 07:22:39;;;;;;;10.68;7.13;;;;;;;;;;5050500;28;20060;-86
2021/08/03 07:25:08;;;;;;;10.82;6.50;;;;;;;;;;5050382;28;20131;-86
2021/08/03 07:27:34;;;;;;;12.40;8.73;;;;;;;;;;5050434;28;20072;-88
2021/08/03 07:30:03;;;;;;;18.35;10.63;;;;;;;;;;5050349;28;20056;-86
2021/08/03 07:32:29;;;;;;;9.00;7.35;;;;;;;;;;5050035;28;20053;-86
2021/08/03 07:34:56;;;;;;;14.25;8.80;;;;;;;;;;5050294;28;20045;-85
2021/08/03 07:37:23;;;;;;;11.68;8.65;;;;;;;;;;5050077;28;20063;-88
2021/08/03 07:39:49;;;;;;;7.55;5.15;;;;;;;;;;5050196;28;20048;-87
2021/08/03 07:42:16;;;;;;;10.23;5.88;;;;;;;;;;5049819;28;20051;-87
2021/08/03 07:44:43;;;;;;;9.77;4.75;;;;;;;;;;5049970;28;20061;-87
2021/08/03 07:47:12;;;;;;;8.02;4.35;;;;;;;;;;5050100;28;20110;-88
2021/08/03 07:49:39;;;;;;;16.42;5.38;;;;;;;;;;5050096;28;20048;-88
2021/08/03 07:52:07;;;;;;;10.15;5.35;;;;;;;;;;5049502;28;20057;-88
2021/08/03 07:54:33;;;;;;;7.45;3.65;;;;;;;;;;5049661;28;20635;-87
2021/08/03 07:57:00;;;;;;;6.15;4.00;;;;;;;;;;5049745;28;20098;-87
2021/08/03 07:59:26;;;;;;;8.35;4.32;;;;;;;;;;5049565;28;20489;-87
2021/08/03 08:01:53;;;;;;;6.25;3.92;;;;;;;;;;5049591;28;20049;-87
2021/08/03 08:04:21;;;;;;;5.95;3.35;;;;;;;;;;5049564;28;20041;-88
2021/08/03 08:06:47;;;;;;;7.40;4.47;;;;;;;;;;5049426;28;20045;-87
2021/08/03 08:09:14;;;;;;;6.28;3.10;;;;;;;;;;5049804;28;20053;-86
2021/08/03 08:11:40;;;;;;;5.60;3.13;;;;;;;;;;5049691;28;20055;-85
2021/08/03 08:14:07;;;;;;;7.05;3.10;;;;;;;;;;5049661;28;20053;-87
2021/08/03 08:16:33;;;;;;;5.90;3.38;;;;;;;;;;5049571;28;20094;-86
2021/08/03 08:19:00;;;;;;;6.95;3.35;;;;;;;;;;5049584;28;20057;-87
2021/08/03 08:21:32;;;;;;;3.67;2.80;;;;;;;;;;5049545;28;20053;-86
2021/08/03 08:23:59;;;;;;;7.00;3.03;;;;;;;;;;5049535;28;20045;-87
2021/08/03 08:26:26;;;;;;;4.15;2.47;;;;;;;;;;5049476;28;20048;-89
2021/08/03 08:28:52;;;;;;;7.95;2.60;;;;;;;;;;5049217;28;20534;-87
2021/08/03 08:31:19;;;;;;;5.20;2.60;;;;;;;;;;5049112;28;20533;-87
2021/08/03 08:33:45;;;;;;;5.72;2.35;;;;;;;;;;5049214;28;20045;-87
2021/08/03 08:36:12;;;;;;;4.10;2.50;;;;;;;;;;5049250;28;20072;-86
2021/08/03 08:38:40;;;;;;;5.15;2.30;;;;;;;;;;5049402;28;20801;-87
2021/08/03 08:41:07;;;;;;;5.13;3.13;;;;;;;;;;5048730;28;20063;-87
2021/08/03 08:43:33;;;;;;;5.93;3.28;;;;;;;;;;5030207;28;20049;-87
2021/08/03 08:46:00;;;;;;;5.45;2.80;;;;;;;;;;5027196;28;20056;-87
2021/08/03 08:48:26;;;;;;;3.78;2.13;;;;;;;;;;5029369;28;20076;-87
2021/08/03 08:50:54;;;;;;;3.70;2.25;;;;;;;;;;5029514;28;20056;-87
2021/08/03 08:53:24;;;;;;;4.93;2.70;;;;;;;;;;5028940;28;20099;-88
2021/08/03 08:55:52;;;;;;;4.40;2.33;;;;;;;;;;5034930;28;20086;-87
2021/08/03 08:58:19;;;;;;;3.35;2.03;;;;;;;;;;5048769;28;20041;-87
2021/08/03 09:00:45;;;;;;;3.70;2.13;;;;;;;;;;5038182;28;20050;-88
2021/08/03 09:03:12;;;;;;;3.80;2.00;;;;;;;;;;5029841;28;20091;-87
2021/08/03 09:05:40;;;;;;;4.45;2.33;;;;;;;;;;5033139;28;20060;-89
2021/08/03 09:08:08;;;;;;;5.97;2.42;;;;;;;;;;5033096;28;20433;-89
2021/08/03 09:10:36;;;;;;;4.28;2.47;;;;;;;;;;5032952;28;20049;-88
2021/08/03 09:13:06;;;;;;;3.33;2.40;;;;;;;;;;5033054;28;20075;-87
2021/08/03 09:15:35;;;;;;;4.40;2.05;;;;;;;;;;5032999;28;20406;-90
2021/08/03 09:18:09;;;;;;;2.55;1.85;;;;;;;;;;5032593;28;20045;-88
2021/08/03 09:20:36;;;;;;;7.60;1.65;;;;;;;;;;5032875;28;20050;-87
2021/08/03 09:23:02;;;;;;;3.20;1.35;;;;;;;;;;5032368;28;20092;-86
2021/08/03 09:25:29;;;;;;;2.25;1.10;;;;;;;;;;5032806;28;20049;-88
2021/08/03 09:28:01;;;;;;;4.20;1.42;;;;;;;;;;5032819;28;20053;-89
2021/08/03 09:30:30;;;;;;;2.90;1.13;;;;;;;;;;5032798;28;20073;-90
2021/08/03 09:32:57;;;;;;;3.97;1.83;;;;;;;;;;5032656;28;20050;-91
2021/08/03 09:35:24;;;;;;;2.80;1.85;;;;;;;;;;5032569;28;20417;-87
2021/08/03 09:37:52;;;;;;;1.88;1.00;;;;;;;;;;5032525;28;20054;-88
2021/08/03 09:40:20;;;;;;;2.17;0.90;;;;;;;;;;5032937;28;20053;-87
2021/08/03 09:42:57;;;;;;;1.30;0.73;;;;;;;;;;5033058;28;20411;-88
2021/08/03 09:45:23;;;;;;;1.25;0.60;;;;;;;;;;5032660;28;20115;-88
2021/08/03 09:47:51;;;;;;;1.48;0.73;;;;;;;;;;5032556;28;20053;-88
2021/08/03 09:50:19;;;;;;;1.85;1.15;;;;;;;;;;5032995;28;20064;-90
2021/08/03 09:52:47;;;;;;;3.95;1.63;;;;;;;;;;5031409;28;20053;-89
2021/08/03 09:55:15;;;;;;;2.70;1.05;;;;;;;;;;5031813;28;20049;-89
2021/08/03 09:57:42;;;;;;;1.40;0.73;;;;;;;;;;5031733;28;20041;-88
2021/08/03 10:00:23;;;;;;;1.88;1.00;;;;;;;;;;5031956;28;20052;-88
2021/08/03 10:02:50;;;;;;;2.88;1.02;;;;;;;;;;5031981;28;20050;-86
2021/08/03 10:05:19;;;;;;;2.85;1.25;;;;;;;;;;5031870;28;20056;-90
2021/08/03 10:07:45;;;;;;;2.83;1.05;;;;;;;;;;5031671;28;20053;-90
2021/08/03 10:10:13;;;;;;;2.75;0.52;;;;;;;;;;5031810;28;20049;-89
2021/08/03 10:12:39;;;;;;;2.10;0.90;;;;;;;;;;5032089;28;20457;-87
2021/08/03 10:15:08;;;;;;;4.88;1.75;;;;;;;;;;5030520;28;20048;-89
2021/08/03 10:17:34;;;;;;;4.25;1.00;;;;;;;;;;5031992;28;20054;-89
2021/08/03 10:20:01;;;;;;;1.55;1.00;;;;;;;;;;5031919;28;20050;-90
2021/08/03 10:22:31;;;;;;;2.38;1.58;;;;;;;;;;5029426;28;20517;-89
2021/08/03 10:24:59;;;;;;;1.73;0.68;;;;;;;;;;5031909;28;20053;-88
2021/08/03 10:27:39;;;;;;;2.67;0.88;;;;;;;;;;5040096;28;20045;-89
2021/08/03 10:30:07;;;;;;;3.40;1.50;;;;;;;;;;5050119;28;20470;-87
2021/08/03 10:32:38;;;;;;;2.15;0.80;;;;;;;;;;5031993;28;20056;-87
2021/08/03 10:35:05;;;;;;;1.65;0.70;;;;;;;;;;5031051;28;20053;-88
2021/08/03 10:37:50;;;;;;;2.03;0.82;;;;;;;;;;5031540;28;20452;-89
2021/08/03 10:40:18;;;;;;;2.28;1.40;;;;;;;;;;5045220;28;20056;-90
2021/08/03 10:46:16;;;;;;;1.40;0.90;;;;;;;;;;5050617;28;20049;-86
2021/08/03 10:48:47;;;;;;;2.75;0.90;;;;;;;;;;5051473;28;20053;-88
2021/08/03 10:51:33;;;;;;;2.08;0.80;;;;;;;;;;5051457;28;20650;-88
2021/08/03 10:54:03;;;;;;;2.17;1.45;;;;;;;;;;5050875;28;20513;-87
2021/08/03 10:56:51;;;;;;;1.85;1.15;;;;;;;;;;5051032;28;20056;-87
2021/08/03 10:59:34;;;;;;;1.67;0.75;;;;;;;;;;5026609;28;20514;-86
2021/08/03 11:02:01;;;;;;;3.40;1.42;;;;;;;;;;5029288;28;20115;-87
2021/08/03 11:04:42;;;;;;;2.67;1.40;;;;;;;;;;5030323;28;20045;-87
2021/08/03 11:07:24;;;;;;;4.78;1.38;;;;;;;;;;5031719;28;20052;-90
2021/08/03 11:09:51;;;;;;;2.42;1.58;;;;;;;;;;5029856;28;20056;-91
2021/08/03 11:12:36;;;;;;;2.60;0.98;;;;;;;;;;5031811;28;20136;-89
2021/08/03 11:15:21;;;;;;;2.35;1.20;;;;;;;;;;5030989;28;20063;-88
2021/08/03 11:17:52;;;;;;;2.67;1.27;;;;;;;;;;5012508;28;20049;-90
2021/08/03 11:20:36;;;;;;;2.38;1.42;;;;;;;;;;5011331;28;20049;-93
2021/08/03 11:25:45;;;;;;;2.78;1.08;;;;;;;;;;4989427;28;20053;-91
2021/08/03 11:28:20;;;;;;;5.63;1.58;;;;;;;;;;5012156;28;20056;-92
2021/08/03 11:30:48;;;;;;;3.47;1.00;;;;;;;;;;5011034;28;20054;-88
2021/08/03 11:33:15;;;;;;;2.00;1.13;;;;;;;;;;5010568;28;20506;-91
2021/08/03 11:35:41;;;;;;;3.25;1.27;;;;;;;;;;5011497;28;20109;-89
2021/08/03 11:38:09;;;;;;;2.95;1.25;;;;;;;;;;5011302;28;20045;-89
2021/08/03 11:40:36;;;;;;;5.03;1.48;;;;;;;;;;5010554;28;20049;-93
2021/08/03 11:43:10;;;;;;;2.42;1.45;;;;;;;;;;5010110;28;20423;-91
2021/08/03 11:45:40;;;;;;;2.42;0.88;;;;;;;;;;5011647;28;20050;-90
2021/08/03 11:48:16;;;;;;;1.90;1.00;;;;;;;;;;5011391;28;20050;-90
2021/08/03 11:50:46;;;;;;;7.40;1.42;;;;;;;;;;5014952;28;20056;-92
2021/08/03 11:53:39;;;;;;;2.00;1.23;;;;;;;;;;5031051;28;20057;-96
2021/08/03 11:56:36;;;;;;;2.10;1.15;;;;;;;;;;5032256;28;20077;-96
2021/08/03 11:59:03;;;;;;;2.13;1.38;;;;;;;;;;5030872;28;20155;-87
2021/08/03 12:01:47;;;;;;;1.98;1.63;;;;;;;;;;5030221;28;20127;-92
2021/08/03 12:04:16;;;;;;;3.22;1.35;;;;;;;;;;5030264;28;20049;-86
2021/08/03 12:06:42;;;;;;;5.45;1.02;;;;;;;;;;5029940;28;20056;-89
2021/08/03 12:09:09;;;;;;;2.05;1.05;;;;;;;;;;5029454;28;20045;-88
2021/08/03 12:11:36;;;;;;;2.95;1.70;;;;;;;;;;5029863;28;20041;-89
2021/08/03 12:14:18;;;;;;;2.22;1.33;;;;;;;;;;5029715;28;20045;-87
2021/08/03 12:16:44;;;;;;;1.92;1.17;;;;;;;;;;5043553;28;20060;-91
2021/08/03 12:19:26;;;;;;;2.08;1.42;;;;;;;;;;5049587;28;20060;-90
2021/08/03 12:21:54;;;;;;;13.38;1.40;;;;;;;;;;5049842;28;20045;-85
2021/08/03 12:24:20;;;;;;;1.77;0.85;;;;;;;;;;5049877;28;20494;-89
2021/08/03 12:26:47;;;;;;;2.50;1.40;;;;;;;;;;5049184;28;20045;-90
2021/08/03 12:29:13;;;;;;;2.33;1.58;;;;;;;;;;5049254;28;20067;-89
2021/08/03 12:31:42;;;;;;;4.88;1.70;;;;;;;;;;5049479;28;20053;-89
2021/08/03 12:34:10;;;;;;;2.15;1.38;;;;;;;;;;5049331;28;20066;-90
2021/08/03 12:36:47;;;;;;;1.83;1.33;;;;;;;;;;5049460;28;20127;-87
2021/08/03 12:39:20;;;;;;;6.45;2.42;;;;;;;;;;5048768;28;20041;-86
2021/08/03 12:42:07;;;;;;;2.22;1.40;;;;;;;;;;5045388;28;20529;-87
2021/08/03 12:44:34;;;;;;;3.65;1.67;;;;;;;;;;5022288;28;20053;-87
2021/08/03 12:47:08;;;;;;;1.73;1.08;;;;;;;;;;5029215;28;20049;-89
2021/08/03 12:49:35;;;;;;;15.43;2.08;;;;;;;;;;5028945;28;20387;-88
2021/08/03 12:52:09;;;;;;;4.40;1.25;;;;;;;;;;5028275;28;20769;-88
2021/08/03 12:54:37;;;;;;;2.20;1.00;;;;;;;;;;5029759;28;20059;-87
2021/08/03 12:57:04;;;;;;;3.70;2.05;;;;;;;;;;5029095;28;20091;-88
2021/08/03 12:59:31;;;;;;;3.83;2.53;;;;;;;;;;5029089;28;20421;-88
2021/08/03 13:01:58;;;;;;;3.90;1.85;;;;;;;;;;5028937;28;20560;-89
2021/08/03 13:04:25;;;;;;;4.72;1.83;;;;;;;;;;5029092;28;20060;-88
2021/08/03 13:06:52;;;;;;;3.15;1.65;;;;;;;;;;5028825;28;20053;-88
2021/08/03 13:09:18;;;;;;;2.95;1.33;;;;;;;;;;5029157;28;20046;-87
2021/08/03 13:11:46;;;;;;;2.25;1.15;;;;;;;;;;5028846;28;20542;-88
2021/08/03 13:14:13;;;;;;;2.33;1.05;;;;;;;;;;5024765;28;20053;-90
2021/08/03 13:16:39;;;;;;;2.95;1.83;;;;;;;;;;5040667;28;20075;-88
2021/08/03 13:19:06;;;;;;;1.85;1.25;;;;;;;;;;5034749;28;20052;-91
2021/08/03 13:21:33;;;;;;;1.67;0.85;;;;;;;;;;5029318;28;20487;-90
2021/08/03 13:23:59;;;;;;;1.50;0.90;;;;;;;;;;5029354;28;20422;-90
2021/08/03 13:26:26;;;;;;;2.30;0.95;;;;;;;;;;5027700;28;20049;-89
2021/08/03 13:32:01;;;;;;;3.75;1.23;;;;;;;;;;4986586;28;20045;-89
2021/08/03 13:34:28;;;;;;;1.27;0.63;;;;;;;;;;5028972;28;20053;-88
2021/08/03 13:36:54;;;;;;;1.38;0.70;;;;;;;;;;5028857;28;20050;-89
2021/08/03 13:39:21;;;;;;;3.30;1.55;;;;;;;;;;5028814;28;20076;-89
2021/08/03 13:41:48;;;;;;;2.60;1.15;;;;;;;;;;5028508;28;20514;-88
2021/08/03 13:44:14;;;;;;;1.40;0.93;;;;;;;;;;5028631;28;20053;-89
2021/08/03 13:46:41;;;;;;;2.65;1.45;;;;;;;;;;5028894;28;20045;-90
2021/08/03 13:49:09;;;;;;;1.20;0.52;;;;;;;;;;5029406;28;20053;-89
2021/08/03 13:51:35;;;;;;;2.30;0.73;;;;;;;;;;5032258;28;20478;-88
2021/08/03 13:54:02;;;;;;;1.80;0.90;;;;;;;;;;5032488;28;20044;-89
2021/08/03 13:56:29;;;;;;;2.25;1.40;;;;;;;;;;5032311;28;20099;-89
2021/08/03 13:58:55;;;;;;;2.08;1.35;;;;;;;;;;5032107;28;20571;-91
2021/08/03 14:01:22;;;;;;;1.73;0.90;;;;;;;;;;5032157;28;20053;-89
2021/08/03 14:03:49;;;;;;;3.55;1.23;;;;;;;;;;5032257;28;20449;-89
2021/08/03 14:06:17;;;;;;;3.63;1.60;;;;;;;;;;5031898;28;20107;-89
2021/08/03 14:08:43;;;;;;;1.98;1.10;;;;;;;;;;5031776;28;20052;-90
2021/08/03 14:11:10;;;;;;;2.85;1.60;;;;;;;;;;5032830;28;20099;-87
2021/08/03 14:13:36;;;;;;;1.58;0.75;;;;;;;;;;5032695;28;20060;-87
2021/08/03 14:16:06;;;;;;;2.70;0.80;;;;;;;;;;5032224;28;20064;-89
2021/08/03 14:18:33;;;;;;;2.78;1.02;;;;;;;;;;5031890;28;20081;-87
2021/08/03 14:21:00;;;;;;;1.27;0.82;;;;;;;;;;5031847;28;20049;-91
2021/08/03 14:23:28;;;;;;;1.70;0.85;;;;;;;;;;5031252;28;20068;-88
2021/08/03 14:25:54;;;;;;;1.27;0.52;;;;;;;;;;5033981;28;20053;-91
2021/08/03 14:28:21;;;;;;;1.55;0.88;;;;;;;;;;5034190;28;20045;-91
2021/08/03 14:30:47;;;;;;;1.48;0.95;;;;;;;;;;5031412;28;20046;-89
2021/08/03 14:33:14;;;;;;;6.60;2.00;;;;;;;;;;5031584;28;20060;-88
2021/08/03 14:35:40;;;;;;;2.05;0.93;;;;;;;;;;5031967;28;20049;-89
2021/08/03 14:38:07;;;;;;;4.13;1.27;;;;;;;;;;5032249;28;20517;-92
2021/08/03 14:40:37;;;;;;;0.85;0.50;;;;;;;;;;5032163;28;20431;-88
2021/08/03 14:43:03;;;;;;;1.38;0.77;;;;;;;;;;5031929;28;20053;-90
2021/08/03 14:45:33;;;;;;;1.20;0.60;;;;;;;;;;5032177;28;20510;-93
2021/08/03 14:47:59;;;;;;;2.28;1.13;;;;;;;;;;5032011;28;20144;-91
2021/08/03 14:50:29;;;;;;;2.03;1.02;;;;;;;;;;5031341;28;20127;-94
2021/08/03 14:52:56;;;;;;;0.95;0.63;;;;;;;;;;5032136;28;20446;-91
2021/08/03 14:55:25;;;;;;;1.42;0.70;;;;;;;;;;5032973;28;20463;-96
2021/08/03 14:57:53;;;;;;;1.40;0.75;;;;;;;;;;5032829;28;20414;-90